GVSV

São Pedro Airport

São Pedro, Cape Verde
METAR GVSV 271100Z 05019KT 9999 SCT020 24/16 Q1018 NOSIG
Observed Flight Rules
May-27 @ 11:00 UTC (an hour ago) Visual Flight Rules
Wind Visibility Clouds
50° at 19 knots 10,000+ meters
  • Scattered at 2,000' AGL
Temperatures Readings
Current 24°C / 75°F
Dewpoint 16°C / 61°F
Humidity 61%
Altimeter 30.06" Hg
Pressure 1018 hPa
Elevation 20
METAR GVSV 271100Z 05019KT 9999 SCT020 24/16 Q1018 NOSIG
Observed Flight Rules
May-27 @ 11:00 UTC
(an hour ago)
VFR
Wind Visibility
50° at 19 knots 10,000+ meters
Clouds
  • Scattered at 2,000' AGL
Temperature Dewpoint
24°C / 75°F 16°C / 61°F
Humidity Altimeter Pressure
61% 30.06" Hg 1018 hPa